logo
Search for airport 
image banner adimage banner adimage banner ad
image banner ad

YLDB - Lady Barron (Flinders Is) Airport

Located in Lady Barron, Australia

ICAO - YLDB, IATA -

Data provided by Airmate  

General information

Coordinates: S40°11'45" E148°14'41"
Elevation is 48 feet MSL.
Magnetic variation is 14° East
View others Airports in Tasmania

Operational data

Special qualification required
Current time UTC:
Current local time:
Weather at : - ( 0 km )
METAR: CYKL 171723Z AUTO 17006KT 5SM -RA BR OVC015 13/12 A2975 RMK SLP089 DENSITY ALT 2100FT
View NOTAMs / SUP AIP / TFR affecting this airport [VIEW]
Communications frequencies: [VIEW]

Runways:

RWY identifierQFULength (ft)Width (ft)SurfaceLDA (ft)
0788°431644DIRT
25268°431644DIRT

Airport contact information

Address: Lady Barron Australia

Satellite view of YLDB